createdAt,value
2019-03-20T00:03:51.127Z,55.60
2019-03-20T00:13:56.200Z,56.00
2019-03-20T00:24:01.511Z,56.20
2019-03-20T00:34:07.016Z,56.60
2019-03-20T00:44:12.415Z,56.50
2019-03-20T00:54:17.796Z,56.20
2019-03-20T01:04:23.016Z,56.00
2019-03-20T01:14:28.386Z,56.20
2019-03-20T01:24:33.446Z,56.70
2019-03-20T01:34:38.504Z,56.60
2019-03-20T01:44:43.940Z,56.80
2019-03-20T01:54:49.010Z,57.20
2019-03-20T02:04:54.067Z,57.00
2019-03-20T02:14:59.230Z,56.70
2019-03-20T02:25:04.758Z,56.70
2019-03-20T02:35:10.270Z,56.80
2019-03-20T02:45:15.625Z,56.80
2019-03-20T02:55:20.933Z,57.10
2019-03-20T03:05:25.977Z,57.50
2019-03-20T03:15:31.042Z,57.50
2019-03-20T03:25:36.210Z,58.00
2019-03-20T03:35:41.326Z,57.60
2019-03-20T03:45:46.493Z,57.40
2019-03-20T03:55:51.569Z,57.30
2019-03-20T04:05:57.238Z,56.90
2019-03-20T04:16:02.528Z,57.60
2019-03-20T04:26:07.711Z,57.60
2019-03-20T04:36:12.775Z,57.70
2019-03-20T04:46:18.203Z,58.00
2019-03-20T04:56:23.656Z,58.20
2019-03-20T05:06:28.723Z,58.00
2019-03-20T05:16:34.147Z,58.00
2019-03-20T05:26:39.238Z,57.80
2019-03-20T05:36:44.604Z,57.80
2019-03-20T05:46:50.446Z,58.00
2019-03-20T05:56:55.549Z,57.70
2019-03-20T06:07:00.967Z,57.60
2019-03-20T06:17:06.070Z,57.60
2019-03-20T06:27:11.595Z,57.70
2019-03-20T06:37:16.751Z,57.70
2019-03-20T06:47:22.539Z,57.60
2019-03-20T06:57:31.571Z,57.40
2019-03-20T07:07:44.354Z,57.20
2019-03-20T07:17:49.366Z,57.30
2019-03-20T07:27:54.657Z,57.10
2019-03-20T07:37:59.935Z,56.80
2019-03-20T07:48:04.995Z,56.80
2019-03-20T07:58:10.311Z,56.60
2019-03-20T08:08:15.355Z,56.40
2019-03-20T08:18:20.409Z,56.30
2019-03-20T08:28:25.468Z,56.10
2019-03-20T08:38:30.528Z,55.90
2019-03-20T08:48:35.607Z,55.60
2019-03-20T08:58:40.909Z,55.10
2019-03-20T09:08:45.971Z,54.80
2019-03-20T09:18:51.052Z,54.00
2019-03-20T09:28:56.187Z,53.50
2019-03-20T09:39:01.267Z,52.60
2019-03-20T09:49:06.563Z,51.80
2019-03-20T09:59:11.649Z,51.10
2019-03-20T10:09:16.799Z,49.80
2019-03-20T10:19:22.952Z,48.50
2019-03-20T10:29:29.096Z,47.30
2019-03-20T10:39:34.220Z,46.30
2019-03-20T10:49:39.313Z,45.50
2019-03-20T10:59:44.383Z,42.70
2019-03-20T11:09:49.663Z,40.40
2019-03-20T11:19:56.327Z,38.00
2019-03-20T11:30:01.621Z,35.80
2019-03-20T11:40:10.692Z,33.90
2019-03-20T11:50:18.344Z,33.10
2019-03-20T12:00:23.556Z,31.10
2019-03-20T12:10:28.851Z,30.00
2019-03-20T12:20:34.239Z,29.20
2019-03-20T12:30:39.705Z,27.50
2019-03-20T12:40:44.833Z,26.30
2019-03-20T12:50:50.036Z,25.50
2019-03-20T13:00:55.164Z,23.70
2019-03-20T13:11:00.254Z,23.40
2019-03-20T13:21:05.363Z,23.00
2019-03-20T13:31:13.875Z,22.30
2019-03-20T13:41:19.137Z,22.50
2019-03-20T13:51:24.290Z,22.30
2019-03-20T14:01:29.361Z,21.90
2019-03-20T14:11:34.771Z,21.40
2019-03-20T14:21:39.870Z,21.50
2019-03-20T14:31:45.980Z,20.80
2019-03-20T14:41:53.431Z,21.90
2019-03-20T14:51:58.602Z,20.10
2019-03-20T15:02:03.695Z,20.40
2019-03-20T15:12:08.794Z,19.10
2019-03-20T15:22:17.053Z,16.10
2019-03-20T15:32:22.558Z,14.50
2019-03-20T15:42:27.770Z,15.20
2019-03-20T15:52:32.919Z,16.60
2019-03-20T16:02:38.315Z,19.50
2019-03-20T16:12:43.391Z,19.10
2019-03-20T16:22:49.515Z,19.50
2019-03-20T16:32:56.526Z,22.60
2019-03-20T16:43:01.926Z,26.20
2019-03-20T16:53:07.133Z,27.70
2019-03-20T17:03:12.229Z,28.80
2019-03-20T17:13:17.310Z,30.10
2019-03-20T17:23:22.406Z,31.60
2019-03-20T17:33:28.142Z,33.40
2019-03-20T17:43:33.282Z,34.30
2019-03-20T17:53:38.391Z,35.40
2019-03-20T18:03:43.568Z,36.70
2019-03-20T18:13:48.646Z,38.20
2019-03-20T18:23:54.091Z,40.70
2019-03-20T18:33:59.697Z,41.30
2019-03-20T18:44:04.879Z,41.90
2019-03-20T18:54:10.302Z,41.60
2019-03-20T19:04:15.488Z,41.70
2019-03-20T19:14:20.659Z,43.10
2019-03-20T19:24:25.883Z,43.40
2019-03-20T19:34:31.284Z,44.00
2019-03-20T19:44:36.672Z,45.00
2019-03-20T19:54:42.058Z,46.80
2019-03-20T20:04:47.131Z,46.30
2019-03-20T20:14:52.441Z,46.70
2019-03-20T20:24:57.550Z,46.90
2019-03-20T20:35:02.647Z,47.40
2019-03-20T20:45:08.692Z,47.40
2019-03-20T20:55:14.001Z,47.50
2019-03-20T21:05:19.083Z,47.70
2019-03-20T21:15:41.577Z,48.00
2019-03-20T21:25:47.666Z,47.90
2019-03-20T21:36:29.078Z,47.90
2019-03-20T21:47:25.115Z,48.30
2019-03-20T21:58:10.454Z,48.60
2019-03-20T22:08:16.071Z,48.70
2019-03-20T22:19:10.201Z,48.80
2019-03-20T22:29:25.871Z,49.10
2019-03-20T22:40:09.011Z,49.20
2019-03-20T22:50:57.643Z,49.20
2019-03-20T23:01:03.292Z,49.20
2019-03-20T23:11:09.122Z,49.20
2019-03-20T23:21:14.815Z,49.30
2019-03-20T23:31:20.410Z,49.40
2019-03-20T23:41:26.251Z,49.40
2019-03-20T23:51:31.897Z,49.60
